createdAt,value
2022-12-26T00:01:10.989Z,49.45
2022-12-26T00:03:38.790Z,50.60
2022-12-26T00:06:18.750Z,50.50
2022-12-26T00:08:47.786Z,50.50
2022-12-26T00:11:15.450Z,49.67
2022-12-26T00:13:43.017Z,49.28
2022-12-26T00:16:13.088Z,50.58
2022-12-26T00:18:40.563Z,51.13
2022-12-26T00:21:09.736Z,52.83
2022-12-26T00:23:37.611Z,52.97
2022-12-26T00:26:18.990Z,51.75
2022-12-26T00:28:46.905Z,49.88
2022-12-26T00:31:26.130Z,49.53
2022-12-26T00:33:54.378Z,48.00
2022-12-26T00:36:29.105Z,51.97
2022-12-26T00:38:57.466Z,49.58
2022-12-26T00:41:25.406Z,49.55
2022-12-26T00:43:53.010Z,49.85
2022-12-26T00:46:20.852Z,50.45
2022-12-26T00:48:48.804Z,49.97
2022-12-26T00:51:16.664Z,49.08
2022-12-26T00:53:44.492Z,48.83
2022-12-26T00:56:11.802Z,50.58
2022-12-26T00:58:40.555Z,48.92
2022-12-26T01:01:20.211Z,49.22
2022-12-26T01:03:49.000Z,47.22
2022-12-26T01:06:16.910Z,48.53
2022-12-26T01:08:44.552Z,46.90
2022-12-26T01:11:14.574Z,47.60
2022-12-26T01:13:42.373Z,46.83
2022-12-26T01:16:09.861Z,46.65
2022-12-26T01:18:37.981Z,48.22
2022-12-26T01:21:11.220Z,48.65
2022-12-26T01:23:38.591Z,46.55
2022-12-26T01:26:17.936Z,46.50
2022-12-26T01:28:50.837Z,47.70
2022-12-26T01:31:18.824Z,47.70
2022-12-26T01:33:46.594Z,46.90
2022-12-26T01:36:14.535Z,47.20
2022-12-26T01:38:41.818Z,46.60
2022-12-26T01:41:20.020Z,45.72
2022-12-26T01:44:00.234Z,46.10
2022-12-26T01:46:40.807Z,44.05
2022-12-26T01:49:36.248Z,44.95
2022-12-26T01:52:17.958Z,44.50
2022-12-26T01:54:48.223Z,45.20
2022-12-26T01:57:26.981Z,43.35
2022-12-26T01:59:55.245Z,42.60
2022-12-26T02:02:23.379Z,42.72
2022-12-26T02:05:10.674Z,41.10
2022-12-26T02:07:41.117Z,38.63
2022-12-26T02:10:13.324Z,39.10
2022-12-26T02:12:41.250Z,38.65
2022-12-26T02:15:12.169Z,37.88
2022-12-26T02:17:40.590Z,38.58
2022-12-26T02:20:25.142Z,37.97
2022-12-26T02:23:19.830Z,37.08
2022-12-26T02:26:11.876Z,36.53
2022-12-26T02:28:56.919Z,37.80
2022-12-26T02:31:37.484Z,37.75
2022-12-26T02:34:15.528Z,38.97
2022-12-26T02:36:57.156Z,38.75
2022-12-26T02:39:43.687Z,39.03
2022-12-26T02:43:01.855Z,39.50
2022-12-26T02:46:11.053Z,39.50
2022-12-26T02:49:06.417Z,40.90
2022-12-26T02:52:16.039Z,38.58
2022-12-26T02:55:23.571Z,38.28
2022-12-26T02:58:21.167Z,38.80
2022-12-26T03:01:08.195Z,36.80
2022-12-26T03:03:55.861Z,38.33
2022-12-26T03:06:43.760Z,37.25
2022-12-26T03:09:42.998Z,37.88
2022-12-26T03:13:01.029Z,35.65
2022-12-26T03:15:51.030Z,34.15
2022-12-26T03:18:19.808Z,30.88
2022-12-26T03:21:07.781Z,28.15
2022-12-26T03:23:36.241Z,29.27
2022-12-26T03:26:26.509Z,28.25
2022-12-26T03:29:18.682Z,25.38
2022-12-26T03:31:46.431Z,22.38
2022-12-26T03:34:19.593Z,23.20
2022-12-26T03:36:50.292Z,21.52
2022-12-26T03:40:05.544Z,20.85
2022-12-26T03:43:22.803Z,19.65
2022-12-26T03:46:37.847Z,19.48
2022-12-26T03:49:43.160Z,17.52
2022-12-26T03:52:31.525Z,16.92
2022-12-26T03:55:45.406Z,17.20
2022-12-26T03:58:45.159Z,15.88
2022-12-26T04:01:42.216Z,15.75
2022-12-26T04:04:30.428Z,14.38
2022-12-26T04:07:56.305Z,13.25
2022-12-26T04:10:51.333Z,12.18
2022-12-26T04:13:45.704Z,11.95
2022-12-26T04:16:56.857Z,12.02
2022-12-26T04:19:27.156Z,10.77
2022-12-26T04:22:26.315Z,10.07
2022-12-26T04:25:50.909Z,10.70
2022-12-26T04:28:35.769Z,9.82
2022-12-26T04:31:27.540Z,10.35
2022-12-26T04:34:21.639Z,10.10
2022-12-26T04:37:20.065Z,9.07
2022-12-26T04:40:08.245Z,9.13
2022-12-26T04:42:55.022Z,8.93
2022-12-26T04:45:22.674Z,8.63
2022-12-26T04:48:09.777Z,8.77
2022-12-26T04:50:37.211Z,8.60
2022-12-26T04:53:04.491Z,8.23
2022-12-26T04:55:33.229Z,8.70
2022-12-26T04:58:01.008Z,8.15
2022-12-26T05:00:29.406Z,8.70
2022-12-26T05:03:19.103Z,8.30
2022-12-26T05:06:07.550Z,7.93
2022-12-26T05:08:57.725Z,7.68
2022-12-26T05:11:25.472Z,7.53
2022-12-26T05:13:57.361Z,7.78
2022-12-26T05:16:43.924Z,8.40
2022-12-26T05:19:35.120Z,7.82
2022-12-26T05:22:22.854Z,8.23
2022-12-26T05:25:09.108Z,8.57
2022-12-26T05:27:58.057Z,8.27
2022-12-26T05:30:25.738Z,8.77
2022-12-26T05:33:12.125Z,8.40
2022-12-26T05:35:40.045Z,8.38
2022-12-26T05:38:08.215Z,7.72
2022-12-26T05:40:36.436Z,7.82
2022-12-26T05:43:03.782Z,8.55
2022-12-26T05:45:31.091Z,8.60
2022-12-26T05:48:00.275Z,8.50
2022-12-26T05:50:28.125Z,8.18
2022-12-26T05:52:57.985Z,7.90
2022-12-26T05:55:25.740Z,8.10
2022-12-26T05:57:53.043Z,7.78
2022-12-26T06:00:20.924Z,8.27
2022-12-26T06:02:48.470Z,7.60
2022-12-26T06:05:16.092Z,7.50
2022-12-26T06:07:43.389Z,7.78
2022-12-26T06:10:10.787Z,7.20
2022-12-26T06:12:38.186Z,6.70
2022-12-26T06:15:06.330Z,7.20
2022-12-26T06:17:33.647Z,7.55
2022-12-26T06:20:00.967Z,6.65
2022-12-26T06:22:30.211Z,7.57
2022-12-26T06:24:57.838Z,6.35
2022-12-26T06:27:25.155Z,6.50
2022-12-26T06:29:52.475Z,6.30
2022-12-26T06:32:19.756Z,6.50
2022-12-26T06:34:48.404Z,6.07
2022-12-26T06:37:15.751Z,5.53
2022-12-26T06:39:43.070Z,5.78
2022-12-26T06:42:10.334Z,6.00
2022-12-26T06:44:38.511Z,5.70
2022-12-26T06:47:05.879Z,5.40
2022-12-26T06:49:33.500Z,5.25
2022-12-26T06:52:00.889Z,5.45
2022-12-26T06:54:28.163Z,5.43
2022-12-26T06:56:55.461Z,5.50
2022-12-26T06:59:22.910Z,5.32
2022-12-26T07:01:50.421Z,5.10
2022-12-26T07:04:17.864Z,4.80
2022-12-26T07:06:45.796Z,4.80
2022-12-26T07:09:17.004Z,4.60
2022-12-26T07:11:46.772Z,4.72
2022-12-26T07:14:14.641Z,4.90
2022-12-26T07:16:43.412Z,4.13
2022-12-26T07:19:12.157Z,4.32
2022-12-26T07:21:41.251Z,4.20
2022-12-26T07:24:19.186Z,4.22
2022-12-26T07:26:47.053Z,4.15
2022-12-26T07:29:14.825Z,4.30
2022-12-26T07:31:42.778Z,4.20
2022-12-26T07:34:10.187Z,4.30
2022-12-26T07:36:37.658Z,4.53
2022-12-26T07:39:05.081Z,4.10
2022-12-26T07:41:51.280Z,4.95
2022-12-26T07:44:18.711Z,4.57
2022-12-26T07:46:47.434Z,5.22
2022-12-26T07:49:14.866Z,4.95
2022-12-26T07:51:43.034Z,5.43
2022-12-26T07:54:11.677Z,5.22
2022-12-26T07:56:39.889Z,4.95
2022-12-26T07:59:07.468Z,5.78
2022-12-26T08:01:34.928Z,5.03
2022-12-26T08:04:02.470Z,5.47
2022-12-26T08:06:29.905Z,5.10
2022-12-26T08:08:57.209Z,5.15
2022-12-26T08:11:24.942Z,4.70
2022-12-26T08:13:52.889Z,4.57
2022-12-26T08:16:21.060Z,5.00
2022-12-26T08:18:49.047Z,4.75
2022-12-26T08:21:16.540Z,4.70
2022-12-26T08:23:43.907Z,4.60
2022-12-26T08:26:12.847Z,4.15
2022-12-26T08:28:40.246Z,3.70
2022-12-26T08:31:09.165Z,3.85
2022-12-26T08:33:36.690Z,3.88
2022-12-26T08:36:09.655Z,3.85
2022-12-26T08:41:06.527Z,3.35
2022-12-26T08:44:03.628Z,3.22
2022-12-26T08:46:22.324Z,3.40
2022-12-26T08:48:50.807Z,3.13
2022-12-26T08:51:23.087Z,3.40
2022-12-26T08:53:51.320Z,4.15
2022-12-26T08:56:23.069Z,4.47
2022-12-26T08:58:50.944Z,4.65
2022-12-26T09:01:26.174Z,4.68
2022-12-26T09:03:57.083Z,5.18
2022-12-26T09:06:27.440Z,4.65
2022-12-26T09:08:55.018Z,4.82
2022-12-26T09:11:32.597Z,4.60
2022-12-26T09:14:01.740Z,4.78
2022-12-26T09:16:55.348Z,5.43
2022-12-26T09:22:52.050Z,3.90
2022-12-26T09:25:21.456Z,3.92
2022-12-26T09:27:51.932Z,3.53
2022-12-26T09:30:23.538Z,3.60
2022-12-26T09:32:51.139Z,2.97
2022-12-26T09:35:18.701Z,3.08
2022-12-26T09:37:46.053Z,3.08
2022-12-26T09:40:23.852Z,2.85
2022-12-26T09:43:10.190Z,4.05
2022-12-26T09:46:12.704Z,3.08
2022-12-26T09:49:01.845Z,3.92
2022-12-26T09:51:31.701Z,3.80
2022-12-26T09:53:59.933Z,4.18
2022-12-26T09:59:19.767Z,3.40
2022-12-26T10:01:49.287Z,3.25
2022-12-26T10:04:29.918Z,3.30
2022-12-26T10:07:22.179Z,3.45
2022-12-26T10:09:52.675Z,3.55
2022-12-26T10:12:28.277Z,3.88
2022-12-26T10:15:18.031Z,3.15
2022-12-26T10:17:57.166Z,2.45
2022-12-26T10:20:27.491Z,2.40
2022-12-26T10:22:55.026Z,2.50
2022-12-26T10:25:42.309Z,2.78
2022-12-26T10:28:35.023Z,2.38
2022-12-26T10:31:31.930Z,2.22
2022-12-26T10:34:11.292Z,2.80
2022-12-26T10:36:52.465Z,2.42
2022-12-26T10:39:46.185Z,2.60
2022-12-26T10:42:32.890Z,2.50
2022-12-26T10:45:00.696Z,2.03
2022-12-26T10:47:34.782Z,2.33
2022-12-26T10:50:02.460Z,2.17
2022-12-26T10:52:37.025Z,2.75
2022-12-26T10:55:27.955Z,2.30
2022-12-26T10:57:53.246Z,2.47
2022-12-26T11:00:23.173Z,2.25
2022-12-26T11:03:11.858Z,3.80
2022-12-26T11:08:47.497Z,2.50
2022-12-26T11:11:45.971Z,2.95
2022-12-26T11:14:38.488Z,2.65
2022-12-26T11:17:25.461Z,2.72
2022-12-26T11:20:10.334Z,2.72
2022-12-26T11:22:37.669Z,2.20
2022-12-26T11:25:17.020Z,2.05
2022-12-26T11:27:50.884Z,2.13
2022-12-26T11:30:33.814Z,1.98
2022-12-26T11:33:19.100Z,2.25
2022-12-26T11:35:52.921Z,2.22
2022-12-26T11:38:44.035Z,1.70
2022-12-26T11:41:40.258Z,1.98
2022-12-26T11:44:21.221Z,1.60
2022-12-26T11:46:59.561Z,2.53
2022-12-26T11:49:41.821Z,1.60
2022-12-26T11:52:37.692Z,1.80
2022-12-26T11:55:23.403Z,1.50
2022-12-26T11:58:09.564Z,1.70
2022-12-26T12:00:41.214Z,1.70
2022-12-26T12:03:26.226Z,1.58
2022-12-26T12:05:59.334Z,1.63
2022-12-26T12:08:44.783Z,1.90
2022-12-26T12:11:29.040Z,1.77
2022-12-26T12:14:19.609Z,2.03
2022-12-26T12:16:50.093Z,2.22
2022-12-26T12:19:39.204Z,1.67
2022-12-26T12:22:24.696Z,1.98
2022-12-26T12:25:42.926Z,1.80
2022-12-26T12:28:42.433Z,1.80
2022-12-26T12:31:29.514Z,1.40
2022-12-26T12:34:18.478Z,1.48
2022-12-26T12:37:14.719Z,1.25
2022-12-26T12:40:08.245Z,1.90
2022-12-26T12:42:47.286Z,1.42
2022-12-26T12:45:32.718Z,1.33
2022-12-26T12:48:18.320Z,1.35
2022-12-26T12:51:05.578Z,1.60
2022-12-26T12:54:05.308Z,1.65
2022-12-26T12:57:30.240Z,1.35
2022-12-26T13:00:21.682Z,1.85
2022-12-26T13:03:24.080Z,1.77
2022-12-26T13:06:15.668Z,1.60
2022-12-26T13:09:16.971Z,2.10
2022-12-26T13:12:01.465Z,2.00
2022-12-26T13:14:49.965Z,1.90
2022-12-26T13:17:26.532Z,1.80
2022-12-26T13:20:22.674Z,1.50
2022-12-26T13:23:31.384Z,1.60
2022-12-26T13:26:17.042Z,2.20
2022-12-26T13:29:01.474Z,1.77
2022-12-26T13:31:41.172Z,1.92
2022-12-26T13:34:19.503Z,2.20
2022-12-26T13:37:04.047Z,1.90
2022-12-26T13:39:35.179Z,1.55
2022-12-26T13:42:27.298Z,2.25
2022-12-26T13:44:55.473Z,1.77
2022-12-26T13:47:37.703Z,2.03
2022-12-26T13:50:47.177Z,2.27
2022-12-26T13:53:29.610Z,2.40
2022-12-26T13:56:05.351Z,2.08
2022-12-26T13:58:50.868Z,2.13
2022-12-26T14:02:07.223Z,1.85
2022-12-26T14:05:33.111Z,4.30
2022-12-26T14:08:13.784Z,2.55
2022-12-26T14:11:02.650Z,2.22
2022-12-26T14:13:33.949Z,2.00
2022-12-26T14:16:17.797Z,4.22
2022-12-26T14:19:20.684Z,2.15
2022-12-26T14:22:03.992Z,2.08
2022-12-26T14:24:58.365Z,1.77
2022-12-26T14:27:29.048Z,1.98
2022-12-26T14:30:16.215Z,2.17
2022-12-26T14:33:01.960Z,2.17
2022-12-26T14:38:20.550Z,1.50
2022-12-26T14:41:10.009Z,1.98
2022-12-26T14:43:37.540Z,2.08
2022-12-26T14:46:43.919Z,2.15
2022-12-26T14:49:35.490Z,1.80
2022-12-26T14:52:24.929Z,1.73
2022-12-26T14:54:55.792Z,1.73
2022-12-26T14:57:47.568Z,1.88
2022-12-26T15:00:23.196Z,1.90
2022-12-26T15:03:18.449Z,2.78
2022-12-26T15:05:49.642Z,2.00
2022-12-26T15:08:55.295Z,1.95
2022-12-26T15:11:57.447Z,2.38
2022-12-26T15:14:49.510Z,1.80
2022-12-26T15:17:54.573Z,1.98
2022-12-26T15:20:41.373Z,2.35
2022-12-26T15:23:48.557Z,2.60
2022-12-26T15:26:35.959Z,3.00
2022-12-26T15:29:23.494Z,2.30
2022-12-26T15:32:04.917Z,2.55
2022-12-26T15:34:53.959Z,2.60
2022-12-26T15:37:36.118Z,2.83
2022-12-26T15:40:25.945Z,3.67
2022-12-26T15:43:39.052Z,3.22
2022-12-26T15:46:27.661Z,2.53
2022-12-26T15:49:16.945Z,2.85
2022-12-26T15:52:06.113Z,3.22
2022-12-26T15:55:02.662Z,2.83
2022-12-26T15:58:17.245Z,2.72
2022-12-26T16:00:57.012Z,3.20
2022-12-26T16:03:45.910Z,3.13
2022-12-26T16:06:44.814Z,3.97
2022-12-26T16:09:34.712Z,3.20
2022-12-26T16:12:03.854Z,3.20
2022-12-26T16:14:37.968Z,3.08
2022-12-26T16:17:22.464Z,4.50
2022-12-26T16:19:51.953Z,4.60
2022-12-26T16:22:43.967Z,7.28
2022-12-26T16:25:20.878Z,7.78
2022-12-26T16:27:51.729Z,5.57
2022-12-26T16:30:24.922Z,4.80
2022-12-26T16:32:52.801Z,4.70
2022-12-26T16:35:36.823Z,5.55
2022-12-26T16:38:07.268Z,4.90
2022-12-26T16:40:45.639Z,4.07
2022-12-26T16:43:19.393Z,4.38
2022-12-26T16:45:50.832Z,4.35
2022-12-26T16:48:20.439Z,5.25
2022-12-26T16:50:57.521Z,4.85
2022-12-26T16:53:36.073Z,5.25
2022-12-26T16:56:22.227Z,4.70
2022-12-26T16:58:52.319Z,4.05
2022-12-26T17:01:22.142Z,4.75
2022-12-26T17:04:13.936Z,4.38
2022-12-26T17:06:49.109Z,3.97
2022-12-26T17:09:17.441Z,3.70
2022-12-26T17:11:56.338Z,3.70
2022-12-26T17:14:32.210Z,3.70
2022-12-26T17:17:08.742Z,3.40
2022-12-26T17:19:37.480Z,4.18
2022-12-26T17:22:26.222Z,3.30
2022-12-26T17:25:21.485Z,3.53
2022-12-26T17:28:12.507Z,3.72
2022-12-26T17:30:44.741Z,3.95
2022-12-26T17:33:28.056Z,4.07
2022-12-26T17:38:52.752Z,5.55
2022-12-26T17:41:20.565Z,5.63
2022-12-26T17:43:48.349Z,5.07
2022-12-26T17:46:17.479Z,5.28
2022-12-26T17:48:45.557Z,9.57
2022-12-26T17:51:16.307Z,6.28
2022-12-26T17:53:48.955Z,7.38
2022-12-26T17:56:27.178Z,7.03
2022-12-26T17:58:55.987Z,6.22
2022-12-26T18:01:23.556Z,5.85
2022-12-26T18:03:53.043Z,6.45
2022-12-26T18:06:21.984Z,7.07
2022-12-26T18:08:50.854Z,5.68
2022-12-26T18:11:18.388Z,5.38
2022-12-26T18:13:45.957Z,4.65
2022-12-26T18:16:19.108Z,5.35
2022-12-26T18:18:47.465Z,5.38
2022-12-26T18:21:15.955Z,4.30
2022-12-26T18:23:43.608Z,4.35
2022-12-26T18:26:22.406Z,4.25
2022-12-26T18:28:50.766Z,3.85
2022-12-26T18:31:18.365Z,3.63
2022-12-26T18:33:46.026Z,4.63
2022-12-26T18:36:14.766Z,3.90
2022-12-26T18:38:42.371Z,3.78
2022-12-26T18:41:15.349Z,3.47
2022-12-26T18:43:42.850Z,3.40
2022-12-26T18:46:17.414Z,3.03
2022-12-26T18:48:45.226Z,3.70
2022-12-26T18:51:12.749Z,2.85
2022-12-26T18:53:40.391Z,2.63
2022-12-26T18:56:11.299Z,2.97
2022-12-26T18:58:38.729Z,2.35
2022-12-26T19:01:06.345Z,2.72
2022-12-26T19:03:33.935Z,3.10
2022-12-26T19:06:01.389Z,4.15
2022-12-26T19:08:28.832Z,2.83
2022-12-26T19:10:56.240Z,2.80
2022-12-26T19:13:24.036Z,2.80
2022-12-26T19:15:51.598Z,2.75
2022-12-26T19:18:20.057Z,3.00
2022-12-26T19:20:47.564Z,2.90
2022-12-26T19:23:15.064Z,3.22
2022-12-26T19:25:43.782Z,3.42
2022-12-26T19:28:11.272Z,2.28
2022-12-26T19:30:48.743Z,2.50
2022-12-26T19:33:16.298Z,2.92
2022-12-26T19:35:43.835Z,2.90
2022-12-26T19:38:19.764Z,2.70
2022-12-26T19:40:47.227Z,2.70
2022-12-26T19:43:15.330Z,3.22
2022-12-26T19:45:42.699Z,2.95
2022-12-26T19:48:23.681Z,2.80
2022-12-26T19:50:54.083Z,2.65
2022-12-26T19:53:26.166Z,2.08
2022-12-26T19:55:53.966Z,2.85
2022-12-26T19:58:21.416Z,3.05
2022-12-26T20:00:49.576Z,3.35
2022-12-26T20:03:17.523Z,3.05
2022-12-26T20:05:44.894Z,3.25
2022-12-26T20:08:13.445Z,2.90
2022-12-26T20:10:40.864Z,2.90
2022-12-26T20:13:08.293Z,3.50
2022-12-26T20:15:35.777Z,3.88
2022-12-26T20:18:03.341Z,3.33
2022-12-26T20:20:30.858Z,3.60
2022-12-26T20:22:58.215Z,3.20
2022-12-26T20:25:25.661Z,3.17
2022-12-26T20:27:53.026Z,3.17
2022-12-26T20:30:20.395Z,3.42
2022-12-26T20:32:47.907Z,2.78
2022-12-26T20:35:15.703Z,3.60
2022-12-26T20:37:43.121Z,3.67
2022-12-26T20:40:11.213Z,3.35
2022-12-26T20:42:38.590Z,3.35
2022-12-26T20:45:06.513Z,3.40
2022-12-26T20:47:33.957Z,3.85
2022-12-26T20:50:03.106Z,3.85
2022-12-26T20:52:30.751Z,3.67
2022-12-26T20:54:58.206Z,3.90
2022-12-26T20:57:25.626Z,3.92
2022-12-26T20:59:53.396Z,4.30
2022-12-26T21:02:20.936Z,3.33
2022-12-26T21:04:48.536Z,4.28
2022-12-26T21:07:15.903Z,3.92
2022-12-26T21:09:46.402Z,3.92
2022-12-26T21:12:14.451Z,4.10
2022-12-26T21:14:42.235Z,4.03
2022-12-26T21:17:10.048Z,3.97
2022-12-26T21:19:37.455Z,4.03
2022-12-26T21:22:05.023Z,4.13
2022-12-26T21:24:33.294Z,4.28
2022-12-26T21:27:00.850Z,4.22
2022-12-26T21:29:33.367Z,3.90
2022-12-26T21:32:02.253Z,4.05
2022-12-26T21:34:31.673Z,4.30
2022-12-26T21:37:19.813Z,4.35
2022-12-26T21:39:47.629Z,4.60
2022-12-26T21:42:15.197Z,4.03
2022-12-26T21:44:42.763Z,4.72
2022-12-26T21:47:10.380Z,4.30
2022-12-26T21:49:38.296Z,3.83
2022-12-26T21:52:09.880Z,4.38
2022-12-26T21:54:56.763Z,4.30
2022-12-26T21:57:25.901Z,4.95
2022-12-26T21:59:56.138Z,4.32
2022-12-26T22:02:53.035Z,4.40
2022-12-26T22:05:22.804Z,4.85
2022-12-26T22:07:55.605Z,4.38
2022-12-26T22:10:43.189Z,4.35
2022-12-26T22:13:10.648Z,5.15
2022-12-26T22:16:01.346Z,4.30
2022-12-26T22:18:32.667Z,4.25
2022-12-26T22:21:15.718Z,4.25
2022-12-26T22:23:44.217Z,5.10
2022-12-26T22:26:14.326Z,4.70
2022-12-26T22:28:42.469Z,4.72
2022-12-26T22:31:20.258Z,5.05
2022-12-26T22:33:48.534Z,4.72
2022-12-26T22:36:16.080Z,4.82
2022-12-26T22:38:43.556Z,4.70
2022-12-26T22:41:10.985Z,4.55
2022-12-26T22:43:39.046Z,4.93
2022-12-26T22:46:07.351Z,4.90
2022-12-26T22:48:35.471Z,4.80
2022-12-26T22:51:02.939Z,5.25
2022-12-26T22:53:30.780Z,5.53
2022-12-26T22:56:00.746Z,5.53
2022-12-26T22:58:28.897Z,5.80
2022-12-26T23:00:56.453Z,5.38
2022-12-26T23:03:24.764Z,5.60
2022-12-26T23:05:52.860Z,5.68
2022-12-26T23:08:24.512Z,5.18
2022-12-26T23:10:58.972Z,5.18
2022-12-26T23:13:26.751Z,5.22
2022-12-26T23:15:59.710Z,4.90
2022-12-26T23:18:51.568Z,5.55
2022-12-26T23:21:40.535Z,5.15
2022-12-26T23:24:19.717Z,5.57
2022-12-26T23:26:53.816Z,5.70
2022-12-26T23:29:58.489Z,5.35
2022-12-26T23:32:26.093Z,4.88
2022-12-26T23:34:53.553Z,4.68
2022-12-26T23:37:20.971Z,4.25
2022-12-26T23:39:48.419Z,4.70
2022-12-26T23:42:15.912Z,4.65
2022-12-26T23:44:44.061Z,4.95
2022-12-26T23:47:11.641Z,4.43
2022-12-26T23:49:44.598Z,4.50
2022-12-26T23:54:40.021Z,3.83
2022-12-26T23:57:07.571Z,4.57
2022-12-26T23:59:34.923Z,3.70
